Featured Flight

MET332 - Boston to Los Angeles

Airbus A321-232
657MT - Sharklet Equipped
5 hrs 40 mins
2267 nm
Scheduled - Daily

Bid/PiRep Status

Bid was submitted on Jan 10 2017.

No PiRep on file for this bid.

Departure

Departing from
Boston (BOS)
Departure gate
Scheduled Departure
GMT 1100
Local 0700
METAR KBOS 250254Z 27012KT 10SM CLR 25/11 A2982 RMK AO2 SLP099 T02500111 51033 $
TAF KBOS 242323Z 2500/2606 27013G20KT P6SM FEW250 FM250200 27009KT P6SM FEW250 FM250500 27006KT P6SM FEW250 FM251800 20012G19KT P6SM SCT060 FM252100 20011G18KT P6SM BKN060 FM260200 25007KT P6SM SCT060

Arrival

Arriving at
Los Angeles (LAX)
Arrival gate
Scheduled Arrival
GMT 1640
Local 0940
METAR KLAX 250253Z 26013KT 10SM FEW010 SCT100 SCT200 18/16 A2985 RMK AO2 SLP108 T01830161 55003
TAF KLAX 250301Z 2503/2606 26011KT P6SM FEW008 FM250500 26006KT P6SM SKC FM250800 26004KT P6SM OVC006 FM251000 VRB03KT 4SM BR OVC004 FM251400 VRB03KT 5SM BR OVC007 FM251800 27011KT 6SM HZ SCT008 FM252000 26011KT P6SM SKC FM260300 25007KT P6SM SKC

Route Map

Planning Resources

GLYDE BAF J77 SAX J60 ETX RAV J64 MAINE J64 LMN J64 HEC ZIGGY4
MHT SYR J547 BUF J94 ECK J16 MCW J148 ONL J114 DVV HBU J128 TBC J64 HEC ZIGGY4
GLYDE BAF J77 SAX J80 ETX J60 DJB J60 IOW LNK J60 BCE J60 HEC ZIGGY4
LOGAN4 CTR HEC ZIGGY4
MHT CAM SYR BUF J16 BAE ONL DVV HEC ZIGGY4
Route:
OFP Layout:
Units:
Detailed Navlog:
ETOPS Planning:
Plan Stepclimbs:
Runway Analysis:
Include NOTAMS:
FIR NOTAMS:
Flight Maps:

Return Flights

MET331
Airbus A321-232
1730 GMT
MET335
Airbus A321-232
0530 GMT
MET338
Airbus A321-232
1450 GMT
MET603
Boeing 787-8
1500 GMT

Popularity

Hub Current Bids PiReps this month Total PiReps
KMCI 0 0 1
KLAX 0 0 0
KBOS 0 0 0